sensor_id;sensor_type;location;lat;lon;timestamp;P1;durP1;ratioP1;P2;durP2;ratioP2
13208;SDS011;6669;42.678;23.332;2022-11-23T00:01:32;9.07;;;5.00;;
13208;SDS011;6669;42.678;23.332;2022-11-23T00:04:02;7.00;;;5.90;;
13208;SDS011;6669;42.678;23.332;2022-11-23T00:06:33;8.57;;;5.60;;
13208;SDS011;6669;42.678;23.332;2022-11-23T00:09:01;6.17;;;4.97;;
13208;SDS011;6669;42.678;23.332;2022-11-23T00:11:32;4.87;;;4.30;;
13208;SDS011;6669;42.678;23.332;2022-11-23T00:14:02;7.03;;;5.40;;
13208;SDS011;6669;42.678;23.332;2022-11-23T00:16:30;5.53;;;4.80;;
13208;SDS011;6669;42.678;23.332;2022-11-23T00:18:59;5.10;;;4.60;;
13208;SDS011;6669;42.678;23.332;2022-11-23T00:21:30;5.43;;;4.47;;
13208;SDS011;6669;42.678;23.332;2022-11-23T00:23:59;7.63;;;5.30;;
13208;SDS011;6669;42.678;23.332;2022-11-23T00:26:27;7.60;;;5.63;;
13208;SDS011;6669;42.678;23.332;2022-11-23T00:28:56;7.37;;;4.93;;
13208;SDS011;6669;42.678;23.332;2022-11-23T00:31:24;5.87;;;5.27;;
13208;SDS011;6669;42.678;23.332;2022-11-23T00:33:53;7.13;;;5.43;;
13208;SDS011;6669;42.678;23.332;2022-11-23T00:36:22;6.27;;;5.03;;
13208;SDS011;6669;42.678;23.332;2022-11-23T00:38:52;6.90;;;4.80;;
13208;SDS011;6669;42.678;23.332;2022-11-23T00:41:21;6.00;;;4.83;;
13208;SDS011;6669;42.678;23.332;2022-11-23T00:43:50;7.37;;;5.17;;
13208;SDS011;6669;42.678;23.332;2022-11-23T00:46:20;6.23;;;4.63;;
13208;SDS011;6669;42.678;23.332;2022-11-23T00:48:50;4.93;;;4.43;;
13208;SDS011;6669;42.678;23.332;2022-11-23T00:51:20;7.13;;;5.13;;
13208;SDS011;6669;42.678;23.332;2022-11-23T00:53:50;6.27;;;5.10;;
13208;SDS011;6669;42.678;23.332;2022-11-23T00:56:19;6.00;;;4.90;;
13208;SDS011;6669;42.678;23.332;2022-11-23T00:58:47;5.67;;;4.60;;
13208;SDS011;6669;42.678;23.332;2022-11-23T01:01:17;6.00;;;5.27;;
13208;SDS011;6669;42.678;23.332;2022-11-23T01:03:49;5.97;;;4.13;;
13208;SDS011;6669;42.678;23.332;2022-11-23T01:06:19;6.03;;;4.80;;
13208;SDS011;6669;42.678;23.332;2022-11-23T01:08:48;6.23;;;4.70;;
13208;SDS011;6669;42.678;23.332;2022-11-23T01:11:18;6.50;;;4.70;;
13208;SDS011;6669;42.678;23.332;2022-11-23T01:13:46;5.37;;;4.43;;
13208;SDS011;6669;42.678;23.332;2022-11-23T01:16:16;6.27;;;5.33;;
13208;SDS011;6669;42.678;23.332;2022-11-23T01:18:52;6.20;;;4.77;;
13208;SDS011;6669;42.678;23.332;2022-11-23T01:21:21;5.70;;;4.87;;
13208;SDS011;6669;42.678;23.332;2022-11-23T01:23:49;6.70;;;4.60;;
13208;SDS011;6669;42.678;23.332;2022-11-23T01:26:18;5.47;;;4.80;;
13208;SDS011;6669;42.678;23.332;2022-11-23T01:28:46;7.37;;;4.63;;
13208;SDS011;6669;42.678;23.332;2022-11-23T01:31:16;5.90;;;4.77;;
13208;SDS011;6669;42.678;23.332;2022-11-23T01:33:45;6.33;;;5.17;;
13208;SDS011;6669;42.678;23.332;2022-11-23T01:36:16;6.83;;;5.13;;
13208;SDS011;6669;42.678;23.332;2022-11-23T01:38:46;6.03;;;5.30;;
13208;SDS011;6669;42.678;23.332;2022-11-23T01:41:16;9.30;;;6.30;;
13208;SDS011;6669;42.678;23.332;2022-11-23T01:43:46;9.53;;;6.23;;
13208;SDS011;6669;42.678;23.332;2022-11-23T01:46:14;7.00;;;5.43;;
13208;SDS011;6669;42.678;23.332;2022-11-23T01:48:43;8.70;;;5.40;;
13208;SDS011;6669;42.678;23.332;2022-11-23T01:51:16;6.87;;;5.83;;
13208;SDS011;6669;42.678;23.332;2022-11-23T01:53:48;6.10;;;5.17;;
13208;SDS011;6669;42.678;23.332;2022-11-23T01:56:20;7.53;;;5.37;;
13208;SDS011;6669;42.678;23.332;2022-11-23T01:58:53;6.57;;;5.10;;
13208;SDS011;6669;42.678;23.332;2022-11-23T02:01:25;7.30;;;5.37;;
13208;SDS011;6669;42.678;23.332;2022-11-23T02:03:53;5.83;;;4.97;;
13208;SDS011;6669;42.678;23.332;2022-11-23T02:06:24;7.27;;;5.83;;
13208;SDS011;6669;42.678;23.332;2022-11-23T02:08:52;8.70;;;5.10;;
13208;SDS011;6669;42.678;23.332;2022-11-23T02:11:20;5.83;;;4.90;;
13208;SDS011;6669;42.678;23.332;2022-11-23T02:13:49;6.07;;;5.43;;
13208;SDS011;6669;42.678;23.332;2022-11-23T02:16:18;8.07;;;6.00;;
13208;SDS011;6669;42.678;23.332;2022-11-23T02:18:46;6.33;;;5.30;;
13208;SDS011;6669;42.678;23.332;2022-11-23T02:21:16;6.50;;;5.30;;
13208;SDS011;6669;42.678;23.332;2022-11-23T02:23:49;5.83;;;5.20;;
13208;SDS011;6669;42.678;23.332;2022-11-23T02:26:25;8.47;;;4.90;;
13208;SDS011;6669;42.678;23.332;2022-11-23T02:28:56;6.73;;;5.10;;
13208;SDS011;6669;42.678;23.332;2022-11-23T02:31:29;6.77;;;5.00;;
13208;SDS011;6669;42.678;23.332;2022-11-23T02:33:57;5.73;;;5.00;;
13208;SDS011;6669;42.678;23.332;2022-11-23T02:39:13;6.70;;;5.50;;
13208;SDS011;6669;42.678;23.332;2022-11-23T02:41:47;6.23;;;5.17;;
13208;SDS011;6669;42.678;23.332;2022-11-23T02:44:20;7.00;;;5.00;;
13208;SDS011;6669;42.678;23.332;2022-11-23T02:46:56;6.13;;;5.30;;
13208;SDS011;6669;42.678;23.332;2022-11-23T02:49:25;8.20;;;5.90;;
13208;SDS011;6669;42.678;23.332;2022-11-23T02:51:53;7.40;;;5.80;;
13208;SDS011;6669;42.678;23.332;2022-11-23T02:54:21;6.53;;;5.67;;
13208;SDS011;6669;42.678;23.332;2022-11-23T02:56:51;5.70;;;5.07;;
13208;SDS011;6669;42.678;23.332;2022-11-23T02:59:19;7.00;;;5.77;;
13208;SDS011;6669;42.678;23.332;2022-11-23T03:01:48;8.10;;;6.97;;
13208;SDS011;6669;42.678;23.332;2022-11-23T03:04:16;7.07;;;5.87;;
13208;SDS011;6669;42.678;23.332;2022-11-23T03:06:52;7.60;;;5.70;;
13208;SDS011;6669;42.678;23.332;2022-11-23T03:09:20;8.30;;;6.30;;
13208;SDS011;6669;42.678;23.332;2022-11-23T03:11:49;7.43;;;6.50;;
13208;SDS011;6669;42.678;23.332;2022-11-23T03:14:18;8.70;;;5.60;;
13208;SDS011;6669;42.678;23.332;2022-11-23T03:16:46;7.50;;;6.30;;
13208;SDS011;6669;42.678;23.332;2022-11-23T03:19:15;7.20;;;5.60;;
13208;SDS011;6669;42.678;23.332;2022-11-23T03:21:43;7.23;;;5.20;;
13208;SDS011;6669;42.678;23.332;2022-11-23T03:24:11;5.63;;;4.60;;
13208;SDS011;6669;42.678;23.332;2022-11-23T03:26:39;5.63;;;5.00;;
13208;SDS011;6669;42.678;23.332;2022-11-23T03:29:09;6.43;;;4.53;;
13208;SDS011;6669;42.678;23.332;2022-11-23T03:31:37;5.33;;;4.53;;
13208;SDS011;6669;42.678;23.332;2022-11-23T03:34:05;5.23;;;4.10;;
13208;SDS011;6669;42.678;23.332;2022-11-23T03:36:33;5.30;;;3.80;;
13208;SDS011;6669;42.678;23.332;2022-11-23T03:39:01;4.63;;;4.00;;
13208;SDS011;6669;42.678;23.332;2022-11-23T03:41:30;3.93;;;3.53;;
13208;SDS011;6669;42.678;23.332;2022-11-23T03:43:58;6.93;;;4.23;;
13208;SDS011;6669;42.678;23.332;2022-11-23T03:46:28;4.37;;;3.70;;
13208;SDS011;6669;42.678;23.332;2022-11-23T03:48:56;5.30;;;3.97;;
13208;SDS011;6669;42.678;23.332;2022-11-23T03:51:24;4.00;;;3.50;;
13208;SDS011;6669;42.678;23.332;2022-11-23T03:53:52;4.30;;;3.83;;
13208;SDS011;6669;42.678;23.332;2022-11-23T03:56:20;4.20;;;3.57;;
13208;SDS011;6669;42.678;23.332;2022-11-23T03:58:48;4.40;;;3.63;;
13208;SDS011;6669;42.678;23.332;2022-11-23T04:01:16;4.13;;;3.67;;
13208;SDS011;6669;42.678;23.332;2022-11-23T04:03:46;5.20;;;3.50;;
13208;SDS011;6669;42.678;23.332;2022-11-23T04:06:14;4.50;;;3.70;;
13208;SDS011;6669;42.678;23.332;2022-11-23T04:08:42;4.37;;;3.97;;
13208;SDS011;6669;42.678;23.332;2022-11-23T04:11:10;4.77;;;4.27;;
13208;SDS011;6669;42.678;23.332;2022-11-23T04:13:38;8.43;;;5.33;;
13208;SDS011;6669;42.678;23.332;2022-11-23T04:16:07;5.63;;;4.53;;
13208;SDS011;6669;42.678;23.332;2022-11-23T04:18:35;5.60;;;4.53;;
13208;SDS011;6669;42.678;23.332;2022-11-23T04:21:04;6.13;;;4.80;;
13208;SDS011;6669;42.678;23.332;2022-11-23T04:23:32;7.23;;;5.40;;
13208;SDS011;6669;42.678;23.332;2022-11-23T04:26:00;6.37;;;5.23;;
13208;SDS011;6669;42.678;23.332;2022-11-23T04:28:28;5.20;;;4.70;;
13208;SDS011;6669;42.678;23.332;2022-11-23T04:30:56;5.83;;;4.60;;
13208;SDS011;6669;42.678;23.332;2022-11-23T04:33:25;5.97;;;5.10;;
13208;SDS011;6669;42.678;23.332;2022-11-23T04:35:53;5.40;;;4.87;;
13208;SDS011;6669;42.678;23.332;2022-11-23T04:38:23;7.50;;;5.77;;
13208;SDS011;6669;42.678;23.332;2022-11-23T04:40:51;12.97;;;7.83;;
13208;SDS011;6669;42.678;23.332;2022-11-23T04:43:19;7.70;;;5.70;;
13208;SDS011;6669;42.678;23.332;2022-11-23T04:45:47;5.03;;;4.37;;
13208;SDS011;6669;42.678;23.332;2022-11-23T04:48:16;6.37;;;5.27;;
13208;SDS011;6669;42.678;23.332;2022-11-23T04:50:44;28.30;;;13.70;;
13208;SDS011;6669;42.678;23.332;2022-11-23T04:53:14;8.40;;;6.17;;
13208;SDS011;6669;42.678;23.332;2022-11-23T04:55:43;10.53;;;7.47;;
13208;SDS011;6669;42.678;23.332;2022-11-23T04:58:13;9.43;;;6.83;;
13208;SDS011;6669;42.678;23.332;2022-11-23T05:00:41;8.50;;;6.67;;
13208;SDS011;6669;42.678;23.332;2022-11-23T05:03:09;14.57;;;8.80;;
13208;SDS011;6669;42.678;23.332;2022-11-23T05:05:37;8.90;;;6.40;;
13208;SDS011;6669;42.678;23.332;2022-11-23T05:08:06;15.47;;;10.63;;
13208;SDS011;6669;42.678;23.332;2022-11-23T05:10:35;8.57;;;6.37;;
13208;SDS011;6669;42.678;23.332;2022-11-23T05:13:05;10.33;;;8.50;;
13208;SDS011;6669;42.678;23.332;2022-11-23T05:15:33;9.80;;;7.27;;
13208;SDS011;6669;42.678;23.332;2022-11-23T05:18:02;11.17;;;7.83;;
13208;SDS011;6669;42.678;23.332;2022-11-23T05:20:32;8.50;;;6.17;;
13208;SDS011;6669;42.678;23.332;2022-11-23T05:23:01;9.10;;;7.63;;
13208;SDS011;6669;42.678;23.332;2022-11-23T05:25:29;15.83;;;11.40;;
13208;SDS011;6669;42.678;23.332;2022-11-23T05:27:57;10.37;;;8.87;;
13208;SDS011;6669;42.678;23.332;2022-11-23T05:30:46;8.90;;;7.13;;
13208;SDS011;6669;42.678;23.332;2022-11-23T05:33:15;9.53;;;6.83;;
13208;SDS011;6669;42.678;23.332;2022-11-23T05:35:43;8.93;;;7.27;;
13208;SDS011;6669;42.678;23.332;2022-11-23T05:38:11;9.47;;;7.40;;
13208;SDS011;6669;42.678;23.332;2022-11-23T05:40:40;9.13;;;8.10;;
13208;SDS011;6669;42.678;23.332;2022-11-23T05:43:08;10.57;;;7.57;;
13208;SDS011;6669;42.678;23.332;2022-11-23T05:45:36;11.37;;;7.37;;
13208;SDS011;6669;42.678;23.332;2022-11-23T05:48:05;9.57;;;7.43;;
13208;SDS011;6669;42.678;23.332;2022-11-23T05:50:33;10.53;;;7.27;;
13208;SDS011;6669;42.678;23.332;2022-11-23T05:53:02;11.50;;;8.30;;
13208;SDS011;6669;42.678;23.332;2022-11-23T05:55:30;10.07;;;8.33;;
13208;SDS011;6669;42.678;23.332;2022-11-23T05:57:58;9.93;;;8.20;;
13208;SDS011;6669;42.678;23.332;2022-11-23T06:00:26;15.77;;;8.13;;
13208;SDS011;6669;42.678;23.332;2022-11-23T06:03:23;9.60;;;8.17;;
13208;SDS011;6669;42.678;23.332;2022-11-23T06:05:52;11.93;;;8.03;;
13208;SDS011;6669;42.678;23.332;2022-11-23T06:08:21;11.00;;;8.37;;
13208;SDS011;6669;42.678;23.332;2022-11-23T06:10:49;11.17;;;8.20;;
13208;SDS011;6669;42.678;23.332;2022-11-23T06:13:17;10.13;;;8.37;;
13208;SDS011;6669;42.678;23.332;2022-11-23T06:15:46;10.63;;;9.03;;
13208;SDS011;6669;42.678;23.332;2022-11-23T06:18:14;9.23;;;7.60;;
13208;SDS011;6669;42.678;23.332;2022-11-23T06:20:45;10.37;;;8.57;;
13208;SDS011;6669;42.678;23.332;2022-11-23T06:23:19;11.93;;;9.23;;
13208;SDS011;6669;42.678;23.332;2022-11-23T06:25:52;11.10;;;9.03;;
13208;SDS011;6669;42.678;23.332;2022-11-23T06:28:34;9.43;;;8.30;;
13208;SDS011;6669;42.678;23.332;2022-11-23T06:31:31;10.90;;;9.50;;
13208;SDS011;6669;42.678;23.332;2022-11-23T06:34:28;10.90;;;8.53;;
13208;SDS011;6669;42.678;23.332;2022-11-23T07:04:56;11.27;;;8.80;;
13208;SDS011;6669;42.678;23.332;2022-11-23T07:07:52;11.47;;;8.37;;
13208;SDS011;6669;42.678;23.332;2022-11-23T07:10:22;9.87;;;8.23;;
13208;SDS011;6669;42.678;23.332;2022-11-23T07:13:17;10.30;;;8.30;;
13208;SDS011;6669;42.678;23.332;2022-11-23T07:16:21;9.77;;;8.27;;
13208;SDS011;6669;42.678;23.332;2022-11-23T07:19:17;8.87;;;7.87;;
13208;SDS011;6669;42.678;23.332;2022-11-23T07:22:15;9.50;;;7.87;;
13208;SDS011;6669;42.678;23.332;2022-11-23T07:24:44;11.30;;;8.63;;
13208;SDS011;6669;42.678;23.332;2022-11-23T07:27:40;9.47;;;7.47;;
13208;SDS011;6669;42.678;23.332;2022-11-23T07:30:23;10.43;;;8.23;;
13208;SDS011;6669;42.678;23.332;2022-11-23T07:33:19;12.00;;;8.70;;
13208;SDS011;6669;42.678;23.332;2022-11-23T07:36:14;8.47;;;7.33;;
13208;SDS011;6669;42.678;23.332;2022-11-23T07:45:53;12.70;;;9.23;;
13208;SDS011;6669;42.678;23.332;2022-11-23T07:48:26;10.53;;;8.80;;
13208;SDS011;6669;42.678;23.332;2022-11-23T07:51:02;9.50;;;8.30;;
13208;SDS011;6669;42.678;23.332;2022-11-23T07:53:35;9.53;;;7.70;;
13208;SDS011;6669;42.678;23.332;2022-11-23T07:56:31;10.30;;;7.70;;
13208;SDS011;6669;42.678;23.332;2022-11-23T07:59:13;9.77;;;8.10;;
13208;SDS011;6669;42.678;23.332;2022-11-23T08:05:37;9.23;;;8.00;;
13208;SDS011;6669;42.678;23.332;2022-11-23T08:08:08;9.57;;;8.57;;
13208;SDS011;6669;42.678;23.332;2022-11-23T08:10:37;10.57;;;8.83;;
13208;SDS011;6669;42.678;23.332;2022-11-23T08:13:33;11.23;;;9.23;;
13208;SDS011;6669;42.678;23.332;2022-11-23T08:16:30;10.13;;;8.63;;
13208;SDS011;6669;42.678;23.332;2022-11-23T08:19:13;11.27;;;9.33;;
13208;SDS011;6669;42.678;23.332;2022-11-23T08:21:59;10.47;;;8.77;;
13208;SDS011;6669;42.678;23.332;2022-11-23T08:24:33;10.13;;;9.10;;
13208;SDS011;6669;42.678;23.332;2022-11-23T08:27:34;10.30;;;9.17;;
13208;SDS011;6669;42.678;23.332;2022-11-23T08:30:31;11.30;;;9.30;;
13208;SDS011;6669;42.678;23.332;2022-11-23T08:33:30;10.73;;;9.10;;
13208;SDS011;6669;42.678;23.332;2022-11-23T08:36:26;11.33;;;9.70;;
13208;SDS011;6669;42.678;23.332;2022-11-23T08:42:50;11.07;;;8.90;;
13208;SDS011;6669;42.678;23.332;2022-11-23T08:45:33;10.73;;;9.30;;
13208;SDS011;6669;42.678;23.332;2022-11-23T08:48:29;9.60;;;8.60;;
13208;SDS011;6669;42.678;23.332;2022-11-23T08:50:59;9.73;;;8.70;;
13208;SDS011;6669;42.678;23.332;2022-11-23T08:53:40;9.80;;;8.80;;
13208;SDS011;6669;42.678;23.332;2022-11-23T09:13:28;9.65;;;8.07;;
13208;SDS011;6669;42.678;23.332;2022-11-23T09:16:10;8.50;;;7.18;;
13208;SDS011;6669;42.678;23.332;2022-11-23T09:18:59;8.25;;;7.05;;
13208;SDS011;6669;42.678;23.332;2022-11-23T09:21:48;7.50;;;6.22;;
13208;SDS011;6669;42.678;23.332;2022-11-23T09:24:43;7.38;;;5.60;;
13208;SDS011;6669;42.678;23.332;2022-11-23T09:27:21;7.32;;;5.75;;
13208;SDS011;6669;42.678;23.332;2022-11-23T09:30:08;6.53;;;5.63;;
13208;SDS011;6669;42.678;23.332;2022-11-23T09:32:39;6.22;;;4.90;;
13208;SDS011;6669;42.678;23.332;2022-11-23T09:35:08;5.25;;;4.75;;
13208;SDS011;6669;42.678;23.332;2022-11-23T09:37:36;5.20;;;4.70;;
13208;SDS011;6669;42.678;23.332;2022-11-23T09:40:05;6.53;;;4.93;;
13208;SDS011;6669;42.678;23.332;2022-11-23T09:43:02;5.93;;;5.00;;
13208;SDS011;6669;42.678;23.332;2022-11-23T09:46:12;6.38;;;4.70;;
13208;SDS011;6669;42.678;23.332;2022-11-23T09:49:02;5.00;;;4.40;;
13208;SDS011;6669;42.678;23.332;2022-11-23T09:51:53;6.00;;;4.97;;
13208;SDS011;6669;42.678;23.332;2022-11-23T09:54:40;6.55;;;4.82;;
13208;SDS011;6669;42.678;23.332;2022-11-23T09:57:25;6.38;;;5.30;;
13208;SDS011;6669;42.678;23.332;2022-11-23T10:03:04;5.53;;;4.75;;
13208;SDS011;6669;42.678;23.332;2022-11-23T10:05:35;5.93;;;4.90;;
13208;SDS011;6669;42.678;23.332;2022-11-23T10:08:20;5.65;;;4.45;;
13208;SDS011;6669;42.678;23.332;2022-11-23T10:11:30;5.45;;;4.30;;
13208;SDS011;6669;42.678;23.332;2022-11-23T10:28:19;4.88;;;3.60;;
13208;SDS011;6669;42.678;23.332;2022-11-23T10:31:09;4.35;;;3.38;;
13208;SDS011;6669;42.678;23.332;2022-11-23T10:34:09;4.07;;;3.60;;
13208;SDS011;6669;42.678;23.332;2022-11-23T10:36:43;4.13;;;3.47;;
13208;SDS011;6669;42.678;23.332;2022-11-23T10:39:47;10.25;;;8.15;;
13208;SDS011;6669;42.678;23.332;2022-11-23T10:42:35;4.82;;;3.60;;
13208;SDS011;6669;42.678;23.332;2022-11-23T10:48:52;5.10;;;4.15;;
13208;SDS011;6669;42.678;23.332;2022-11-23T10:51:26;4.13;;;3.72;;
13208;SDS011;6669;42.678;23.332;2022-11-23T10:54:16;4.90;;;3.88;;
13208;SDS011;6669;42.678;23.332;2022-11-23T10:57:28;6.35;;;4.05;;
13208;SDS011;6669;42.678;23.332;2022-11-23T11:00:15;5.95;;;4.20;;
13208;SDS011;6669;42.678;23.332;2022-11-23T11:03:20;7.20;;;4.20;;
13208;SDS011;6669;42.678;23.332;2022-11-23T11:16:33;3.20;;;2.40;;
13208;SDS011;6669;42.678;23.332;2022-11-23T11:19:27;4.88;;;3.00;;
13208;SDS011;6669;42.678;23.332;2022-11-23T11:22:23;6.57;;;2.70;;
13208;SDS011;6669;42.678;23.332;2022-11-23T11:25:27;2.55;;;2.20;;
13208;SDS011;6669;42.678;23.332;2022-11-23T11:28:18;3.90;;;2.70;;
13208;SDS011;6669;42.678;23.332;2022-11-23T11:31:32;3.55;;;2.65;;
13208;SDS011;6669;42.678;23.332;2022-11-23T11:34:44;2.85;;;2.40;;
13208;SDS011;6669;42.678;23.332;2022-11-23T11:37:45;4.03;;;2.22;;
13208;SDS011;6669;42.678;23.332;2022-11-23T11:40:27;5.40;;;2.90;;
13208;SDS011;6669;42.678;23.332;2022-11-23T11:43:01;3.67;;;2.10;;
13208;SDS011;6669;42.678;23.332;2022-11-23T11:46:03;2.75;;;1.70;;
13208;SDS011;6669;42.678;23.332;2022-11-23T11:52:19;3.33;;;1.30;;
13208;SDS011;6669;42.678;23.332;2022-11-23T11:55:14;1.50;;;1.40;;
13208;SDS011;6669;42.678;23.332;2022-11-23T11:57:53;2.40;;;2.20;;
13208;SDS011;6669;42.678;23.332;2022-11-23T12:00:51;1.58;;;1.48;;
13208;SDS011;6669;42.678;23.332;2022-11-23T12:03:46;1.45;;;1.35;;
13208;SDS011;6669;42.678;23.332;2022-11-23T12:06:27;1.35;;;1.23;;
13208;SDS011;6669;42.678;23.332;2022-11-23T12:12:09;1.23;;;1.02;;
13208;SDS011;6669;42.678;23.332;2022-11-23T12:14:43;2.13;;;1.40;;
13208;SDS011;6669;42.678;23.332;2022-11-23T12:17:23;1.20;;;1.08;;
13208;SDS011;6669;42.678;23.332;2022-11-23T12:20:22;1.38;;;1.27;;
13208;SDS011;6669;42.678;23.332;2022-11-23T12:23:06;0.80;;;0.80;;
13208;SDS011;6669;42.678;23.332;2022-11-23T12:28:44;2.10;;;1.23;;
13208;SDS011;6669;42.678;23.332;2022-11-23T12:31:27;1.02;;;0.93;;
13208;SDS011;6669;42.678;23.332;2022-11-23T12:34:45;2.55;;;1.30;;
13208;SDS011;6669;42.678;23.332;2022-11-23T12:37:30;2.17;;;1.20;;
13208;SDS011;6669;42.678;23.332;2022-11-23T12:40:13;1.27;;;1.05;;
13208;SDS011;6669;42.678;23.332;2022-11-23T12:42:59;0.82;;;0.80;;
13208;SDS011;6669;42.678;23.332;2022-11-23T12:45:33;1.42;;;0.75;;
13208;SDS011;6669;42.678;23.332;2022-11-23T12:48:30;0.88;;;0.60;;
13208;SDS011;6669;42.678;23.332;2022-11-23T12:51:15;1.30;;;1.05;;
13208;SDS011;6669;42.678;23.332;2022-11-23T12:54:01;1.02;;;0.95;;
13208;SDS011;6669;42.678;23.332;2022-11-23T12:57:09;1.17;;;1.08;;
13208;SDS011;6669;42.678;23.332;2022-11-23T12:59:59;1.10;;;1.00;;
13208;SDS011;6669;42.678;23.332;2022-11-23T13:06:25;1.13;;;1.02;;
13208;SDS011;6669;42.678;23.332;2022-11-23T13:10:04;1.38;;;0.70;;
13208;SDS011;6669;42.678;23.332;2022-11-23T13:16:32;0.45;;;0.40;;
13208;SDS011;6669;42.678;23.332;2022-11-23T13:19:20;0.32;;;0.20;;
13208;SDS011;6669;42.678;23.332;2022-11-23T13:21:59;0.45;;;0.43;;
13208;SDS011;6669;42.678;23.332;2022-11-23T13:24:34;0.93;;;0.30;;
13208;SDS011;6669;42.678;23.332;2022-11-23T13:30:31;0.80;;;0.80;;
13208;SDS011;6669;42.678;23.332;2022-11-23T13:42:30;1.13;;;1.00;;
13208;SDS011;6669;42.678;23.332;2022-11-23T13:45:28;10.85;;;7.43;;
13208;SDS011;6669;42.678;23.332;2022-11-23T13:48:25;1.45;;;1.30;;
13208;SDS011;6669;42.678;23.332;2022-11-23T13:51:23;0.50;;;0.50;;
13208;SDS011;6669;42.678;23.332;2022-11-23T13:53:54;0.70;;;0.70;;
13208;SDS011;6669;42.678;23.332;2022-11-23T13:56:30;1.33;;;0.90;;
13208;SDS011;6669;42.678;23.332;2022-11-23T14:02:14;1.10;;;0.90;;
13208;SDS011;6669;42.678;23.332;2022-11-23T14:04:52;0.52;;;0.52;;
13208;SDS011;6669;42.678;23.332;2022-11-23T14:07:43;2.72;;;1.98;;
13208;SDS011;6669;42.678;23.332;2022-11-23T14:10:14;1.33;;;1.02;;
13208;SDS011;6669;42.678;23.332;2022-11-23T14:12:52;1.30;;;1.20;;
13208;SDS011;6669;42.678;23.332;2022-11-23T14:15:24;1.40;;;1.15;;
13208;SDS011;6669;42.678;23.332;2022-11-23T14:18:05;3.70;;;1.10;;
13208;SDS011;6669;42.678;23.332;2022-11-23T14:20:48;1.27;;;1.13;;
13208;SDS011;6669;42.678;23.332;2022-11-23T14:26:32;2.08;;;0.80;;
13208;SDS011;6669;42.678;23.332;2022-11-23T14:29:26;1.38;;;0.85;;
13208;SDS011;6669;42.678;23.332;2022-11-23T14:32:07;2.03;;;1.30;;
13208;SDS011;6669;42.678;23.332;2022-11-23T14:34:51;2.13;;;1.38;;
13208;SDS011;6669;42.678;23.332;2022-11-23T14:37:31;3.75;;;1.80;;
13208;SDS011;6669;42.678;23.332;2022-11-23T14:40:13;2.35;;;1.70;;
13208;SDS011;6669;42.678;23.332;2022-11-23T14:42:50;3.60;;;2.05;;
13208;SDS011;6669;42.678;23.332;2022-11-23T14:45:20;2.45;;;2.22;;
13208;SDS011;6669;42.678;23.332;2022-11-23T14:47:50;3.45;;;1.83;;
13208;SDS011;6669;42.678;23.332;2022-11-23T14:50:19;6.45;;;1.92;;
13208;SDS011;6669;42.678;23.332;2022-11-23T14:52:48;2.25;;;2.03;;
13208;SDS011;6669;42.678;23.332;2022-11-23T14:55:21;1.73;;;1.30;;
13208;SDS011;6669;42.678;23.332;2022-11-23T14:57:53;2.88;;;1.95;;
13208;SDS011;6669;42.678;23.332;2022-11-23T15:00:35;3.10;;;2.17;;
13208;SDS011;6669;42.678;23.332;2022-11-23T15:03:06;2.22;;;1.70;;
13208;SDS011;6669;42.678;23.332;2022-11-23T15:06:05;1.75;;;1.25;;
13208;SDS011;6669;42.678;23.332;2022-11-23T15:08:39;1.63;;;1.20;;
13208;SDS011;6669;42.678;23.332;2022-11-23T15:11:27;3.60;;;1.38;;
13208;SDS011;6669;42.678;23.332;2022-11-23T15:14:14;5.32;;;2.38;;
13208;SDS011;6669;42.678;23.332;2022-11-23T15:16:44;2.20;;;1.70;;
13208;SDS011;6669;42.678;23.332;2022-11-23T15:19:18;1.80;;;1.08;;
13208;SDS011;6669;42.678;23.332;2022-11-23T15:21:53;1.95;;;1.45;;
13208;SDS011;6669;42.678;23.332;2022-11-23T15:24:35;2.47;;;1.83;;
13208;SDS011;6669;42.678;23.332;2022-11-23T15:27:08;1.50;;;1.40;;
13208;SDS011;6669;42.678;23.332;2022-11-23T15:29:49;2.70;;;1.75;;
13208;SDS011;6669;42.678;23.332;2022-11-23T15:32:20;2.25;;;1.90;;
13208;SDS011;6669;42.678;23.332;2022-11-23T15:35:01;2.13;;;1.70;;
13208;SDS011;6669;42.678;23.332;2022-11-23T15:37:35;2.00;;;1.80;;
13208;SDS011;6669;42.678;23.332;2022-11-23T15:40:10;6.53;;;2.50;;
13208;SDS011;6669;42.678;23.332;2022-11-23T15:42:42;4.80;;;1.65;;
13208;SDS011;6669;42.678;23.332;2022-11-23T15:48:04;3.70;;;2.17;;
13208;SDS011;6669;42.678;23.332;2022-11-23T15:50:43;3.92;;;2.28;;
13208;SDS011;6669;42.678;23.332;2022-11-23T15:53:19;4.70;;;2.22;;
13208;SDS011;6669;42.678;23.332;2022-11-23T15:55:51;3.83;;;2.60;;
13208;SDS011;6669;42.678;23.332;2022-11-23T15:58:21;4.90;;;3.33;;
13208;SDS011;6669;42.678;23.332;2022-11-23T16:00:52;6.43;;;2.50;;
13208;SDS011;6669;42.678;23.332;2022-11-23T16:03:29;2.58;;;2.00;;
13208;SDS011;6669;42.678;23.332;2022-11-23T16:06:13;4.53;;;2.28;;
13208;SDS011;6669;42.678;23.332;2022-11-23T16:08:45;4.22;;;2.70;;
13208;SDS011;6669;42.678;23.332;2022-11-23T16:11:20;6.47;;;3.30;;
13208;SDS011;6669;42.678;23.332;2022-11-23T16:16:59;3.67;;;2.75;;
13208;SDS011;6669;42.678;23.332;2022-11-23T16:19:32;5.60;;;2.92;;
13208;SDS011;6669;42.678;23.332;2022-11-23T16:22:02;6.07;;;2.90;;
13208;SDS011;6669;42.678;23.332;2022-11-23T16:24:33;5.47;;;3.10;;
13208;SDS011;6669;42.678;23.332;2022-11-23T16:27:10;4.68;;;2.80;;
13208;SDS011;6669;42.678;23.332;2022-11-23T16:29:39;3.92;;;3.00;;
13208;SDS011;6669;42.678;23.332;2022-11-23T16:32:20;3.92;;;2.75;;
13208;SDS011;6669;42.678;23.332;2022-11-23T16:34:51;4.22;;;3.08;;
13208;SDS011;6669;42.678;23.332;2022-11-23T16:37:20;6.25;;;3.55;;
13208;SDS011;6669;42.678;23.332;2022-11-23T16:39:52;3.80;;;3.40;;
13208;SDS011;6669;42.678;23.332;2022-11-23T16:42:21;13.55;;;7.93;;
13208;SDS011;6669;42.678;23.332;2022-11-23T16:44:49;8.93;;;5.70;;
13208;SDS011;6669;42.678;23.332;2022-11-23T16:50:17;3.50;;;2.50;;
13208;SDS011;6669;42.678;23.332;2022-11-23T16:52:46;5.75;;;3.08;;
13208;SDS011;6669;42.678;23.332;2022-11-23T16:55:28;3.00;;;2.47;;
13208;SDS011;6669;42.678;23.332;2022-11-23T16:58:13;3.42;;;2.22;;
13208;SDS011;6669;42.678;23.332;2022-11-23T17:00:45;6.57;;;3.10;;
13208;SDS011;6669;42.678;23.332;2022-11-23T17:03:23;3.38;;;3.00;;
13208;SDS011;6669;42.678;23.332;2022-11-23T17:05:51;5.20;;;3.25;;
13208;SDS011;6669;42.678;23.332;2022-11-23T17:08:19;4.90;;;3.15;;
13208;SDS011;6669;42.678;23.332;2022-11-23T17:10:49;12.88;;;7.53;;
13208;SDS011;6669;42.678;23.332;2022-11-23T17:13:19;4.93;;;3.85;;
13208;SDS011;6669;42.678;23.332;2022-11-23T17:15:49;4.07;;;2.90;;
13208;SDS011;6669;42.678;23.332;2022-11-23T17:22:25;3.63;;;2.10;;
13208;SDS011;6669;42.678;23.332;2022-11-23T17:25:22;2.00;;;1.80;;
13208;SDS011;6669;42.678;23.332;2022-11-23T17:28:05;4.25;;;2.28;;
13208;SDS011;6669;42.678;23.332;2022-11-23T17:30:43;3.38;;;2.30;;
13208;SDS011;6669;42.678;23.332;2022-11-23T17:33:15;2.30;;;1.70;;
13208;SDS011;6669;42.678;23.332;2022-11-23T17:35:49;2.40;;;2.10;;
13208;SDS011;6669;42.678;23.332;2022-11-23T17:41:32;5.90;;;4.05;;
13208;SDS011;6669;42.678;23.332;2022-11-23T17:44:15;7.43;;;3.50;;
13208;SDS011;6669;42.678;23.332;2022-11-23T17:46:44;5.40;;;3.22;;
13208;SDS011;6669;42.678;23.332;2022-11-23T17:49:14;5.13;;;3.10;;
13208;SDS011;6669;42.678;23.332;2022-11-23T17:51:47;6.07;;;3.03;;
13208;SDS011;6669;42.678;23.332;2022-11-23T17:54:22;5.72;;;3.40;;
13208;SDS011;6669;42.678;23.332;2022-11-23T17:57:08;7.47;;;3.42;;
13208;SDS011;6669;42.678;23.332;2022-11-23T18:00:13;2.95;;;2.38;;
13208;SDS011;6669;42.678;23.332;2022-11-23T18:03:02;4.40;;;3.08;;
13208;SDS011;6669;42.678;23.332;2022-11-23T18:05:58;6.38;;;3.40;;
13208;SDS011;6669;42.678;23.332;2022-11-23T18:08:44;3.60;;;2.55;;
13208;SDS011;6669;42.678;23.332;2022-11-23T18:14:17;3.50;;;2.75;;